Time;durP1;ratioP1;P1;durP2;ratioP2;P2;SDS_P1;SDS_P2;PMS_P1;PMS_P2;Temp;Humidity;BMP_temperature;BMP_pressure;BME280_temperature;BME280_humidity;BME280_pressure;Samples;Min_cycle;Max_cycle;Signal;HPM_P1;HPM_P2
2022/11/12 00:00:22;;;;;;;;;29.33;27.33;;;;;12.66;69.46;102140.06;5057655;28;45574;-69
2022/11/12 00:02:47;;;;;;;;;28.00;25.67;;;;;12.67;69.75;102141.81;5057969;28;45530;-69
2022/11/12 00:05:12;;;;;;;;;27.67;25.00;;;;;12.67;69.91;102135.66;5040584;28;45435;-69
2022/11/12 00:07:38;;;;;;;;;28.33;27.00;;;;;12.67;69.54;102135.66;5057899;28;45360;-68
2022/11/12 00:10:04;;;;;;;;;26.67;26.00;;;;;12.64;69.87;102141.00;5057722;28;46382;-69
2022/11/12 00:12:29;;;;;;;;;23.00;23.00;;;;;12.60;69.84;102127.88;5057648;28;45491;-69
2022/11/12 00:14:54;;;;;;;;;24.67;24.67;;;;;12.61;70.07;102128.75;5057832;28;45437;-69
2022/11/12 00:17:20;;;;;;;;;28.33;26.00;;;;;12.62;69.85;102126.97;5057780;28;45474;-70
2022/11/12 00:19:45;;;;;;;;;24.67;24.67;;;;;12.59;69.38;102138.44;5057769;28;45458;-69
2022/11/12 00:22:11;;;;;;;;;27.33;27.33;;;;;12.56;69.93;102144.66;5057634;28;45447;-68
2022/11/12 00:24:36;;;;;;;;;26.00;26.00;;;;;12.51;69.56;102143.88;5057643;28;45946;-68
2022/11/12 00:27:01;;;;;;;;;23.33;23.33;;;;;12.48;70.20;102148.34;5057834;28;45442;-69
2022/11/12 00:29:27;;;;;;;;;25.33;25.00;;;;;12.45;69.77;102137.84;5057360;28;45543;-69
2022/11/12 00:31:52;;;;;;;;;26.33;24.33;;;;;12.44;69.93;102144.91;5058066;28;45365;-69
2022/11/12 00:34:17;;;;;;;;;27.33;27.33;;;;;12.40;70.51;102137.06;5057350;28;45467;-69
2022/11/12 00:36:42;;;;;;;;;29.67;26.33;;;;;12.38;70.39;102135.31;5057510;28;45450;-69
2022/11/12 00:39:08;;;;;;;;;27.00;25.00;;;;;12.38;70.57;102135.31;5048765;28;52598;-69
2022/11/12 00:41:33;;;;;;;;;29.00;26.00;;;;;12.34;70.11;102135.41;5051633;28;45391;-69
2022/11/12 00:43:58;;;;;;;;;23.33;22.33;;;;;12.33;70.90;102146.84;5057649;28;45363;-69
2022/11/12 00:46:24;;;;;;;;;27.67;26.00;;;;;12.32;70.77;102134.56;5057492;28;45356;-68
2022/11/12 00:48:49;;;;;;;;;24.67;24.67;;;;;12.29;70.79;102137.25;5056907;28;47718;-68
2022/11/12 00:51:14;;;;;;;;;20.00;18.00;;;;;12.25;70.86;102135.53;5057180;28;45526;-68
2022/11/12 00:53:39;;;;;;;;;25.67;24.67;;;;;12.28;70.56;102130.25;5057422;28;45500;-69
2022/11/12 00:56:06;;;;;;;;;25.33;23.67;;;;;12.26;70.62;102124.97;5057344;28;45360;-69
2022/11/12 00:58:33;;;;;;;;;23.00;22.33;;;;;12.25;70.94;102123.25;5057222;28;45326;-69
2022/11/12 01:01:11;;;;;;;;;25.67;24.67;;;;;12.27;71.05;102125.84;5025077;28;45447;-69
2022/11/12 01:03:37;;;;;;;;;24.33;22.67;;;;;12.25;70.35;102128.53;5057171;28;45513;-69
2022/11/12 01:06:13;;;;;;;;;22.00;22.00;;;;;12.21;71.16;102125.97;5047462;28;45593;-69
2022/11/12 01:08:39;;;;;;;;;26.00;24.67;;;;;12.23;71.12;102126.81;5056820;28;46146;-68
2022/11/12 01:11:18;;;;;;;;;27.00;26.67;;;;;12.27;70.37;102131.13;5053182;28;45470;-68
2022/11/12 01:13:45;;;;;;;;;20.67;20.00;;;;;12.26;71.25;102124.13;5048545;28;45404;-68
2022/11/12 01:16:20;;;;;;;;;26.67;25.33;;;;;12.29;70.63;102134.63;5057024;28;45523;-69
2022/11/12 01:18:47;;;;;;;;;21.00;20.67;;;;;12.30;70.39;102124.00;5056593;28;45647;-68
2022/11/12 01:21:13;;;;;;;;;21.00;21.00;;;;;12.31;70.60;102120.50;5056778;28;45493;-70
2022/11/12 01:23:41;;;;;;;;;24.00;22.67;;;;;12.32;70.52;102124.00;5054574;28;45440;-68
2022/11/12 01:26:09;;;;;;;;;21.33;21.33;;;;;12.33;70.16;102118.72;5044821;28;45509;-69
2022/11/12 01:28:35;;;;;;;;;26.67;25.33;;;;;12.32;70.57;102121.34;5056516;28;45584;-68
2022/11/12 01:31:25;;;;;;;;;21.67;21.67;;;;;12.30;70.89;102110.81;5057180;28;45460;-68
2022/11/12 01:33:56;;;;;;;;;27.00;24.67;;;;;12.32;70.21;102111.66;5056527;28;45509;-69
2022/11/12 01:36:23;;;;;;;;;24.00;22.33;;;;;12.31;70.90;102098.53;5056757;28;45533;-69
2022/11/12 01:38:49;;;;;;;;;23.00;22.67;;;;;12.34;70.08;102109.03;5056101;28;45617;-68
2022/11/12 01:41:21;;;;;;;;;24.67;24.67;;;;;12.37;70.33;102109.81;5056572;28;45455;-69
2022/11/12 01:43:47;;;;;;;;;27.00;27.00;;;;;12.29;70.31;102095.91;5056574;28;45415;-69
2022/11/12 01:46:24;;;;;;;;;25.33;23.00;;;;;12.40;69.87;102108.03;5056295;28;45491;-69
2022/11/12 01:49:14;;;;;;;;;24.00;23.67;;;;;12.40;70.07;102108.03;5056513;28;46534;-68
2022/11/12 01:51:42;;;;;;;;;25.67;25.67;;;;;12.42;70.11;102104.47;5056397;28;45487;-68
2022/11/12 01:54:12;;;;;;;;;25.67;24.33;;;;;12.43;69.79;102107.97;5056346;28;45436;-69
2022/11/12 01:56:37;;;;;;;;;24.33;23.00;;;;;12.42;69.83;102093.91;5056260;28;45398;-69
2022/11/12 01:59:24;;;;;;;;;28.33;27.67;;;;;12.42;69.90;102086.00;5055760;28;45379;-68
2022/11/12 02:01:49;;;;;;;;;27.00;24.00;;;;;12.42;69.42;102088.63;5039531;28;45519;-68
2022/11/12 02:04:15;;;;;;;;;24.67;23.00;;;;;12.40;69.57;102089.56;5056309;28;45539;-68
2022/11/12 02:06:43;;;;;;;;;25.00;25.00;;;;;12.43;70.08;102093.00;5055918;28;45598;-69
2022/11/12 02:09:08;;;;;;;;;24.00;24.00;;;;;12.41;69.01;102088.66;5055927;28;46105;-68
2022/11/12 02:11:34;;;;;;;;;25.00;25.00;;;;;12.41;69.68;102096.56;5054856;28;45391;-69
2022/11/12 02:14:03;;;;;;;;;24.00;23.33;;;;;12.38;69.26;102089.56;5055955;28;45401;-69
2022/11/12 02:16:44;;;;;;;;;30.33;24.67;;;;;12.35;69.73;102098.41;5041744;28;45522;-68
2022/11/12 02:19:12;;;;;;;;;25.00;23.33;;;;;12.31;69.61;102109.09;5054883;28;45542;-68
2022/11/12 02:21:38;;;;;;;;;25.33;23.67;;;;;12.28;70.06;102110.00;5055523;28;45581;-70
2022/11/12 02:24:13;;;;;;;;;25.67;25.67;;;;;12.32;69.73;102116.94;5055881;28;45423;-69
2022/11/12 02:26:50;;;;;;;;;27.00;27.00;;;;;12.34;69.53;102107.25;5055728;28;45427;-69
2022/11/12 02:29:15;;;;;;;;;24.67;23.00;;;;;12.32;69.60;102103.75;5055879;28;45525;-68
2022/11/12 02:31:41;;;;;;;;;27.33;26.67;;;;;12.32;69.02;102092.34;5056115;28;45441;-68
2022/11/12 02:34:06;;;;;;;;;29.33;28.00;;;;;12.33;68.94;102100.25;5055793;28;45430;-68
2022/11/12 02:36:31;;;;;;;;;26.33;25.00;;;;;12.33;69.27;102087.03;5055937;28;45630;-69
2022/11/12 02:38:57;;;;;;;;;25.67;25.67;;;;;12.34;68.98;102085.28;5055397;28;46217;-69
2022/11/12 02:41:22;;;;;;;;;18.00;17.33;;;;;12.30;69.34;102080.94;5055724;28;45473;-69
2022/11/12 02:43:48;;;;;;;;;27.00;27.00;;;;;12.30;68.91;102087.06;5055503;28;45524;-68
2022/11/12 02:46:13;;;;;;;;;25.00;25.00;;;;;12.26;69.64;102082.78;5055540;28;45487;-68
2022/11/12 02:48:39;;;;;;;;;27.33;25.67;;;;;12.26;68.98;102085.41;5055291;28;45500;-69
2022/11/12 02:51:05;;;;;;;;;27.67;23.00;;;;;12.27;69.23;102087.13;5055662;28;45446;-68
2022/11/12 02:53:31;;;;;;;;;26.00;25.67;;;;;12.28;69.14;102082.75;5037425;28;45432;-68
2022/11/12 02:55:57;;;;;;;;;24.00;24.00;;;;;12.28;69.36;102075.72;5055346;28;45613;-68
2022/11/12 02:58:23;;;;;;;;;25.33;24.00;;;;;12.29;69.18;102087.13;5055240;28;46177;-69
2022/11/12 03:00:49;;;;;;;;;25.00;23.33;;;;;12.28;69.71;102077.47;5054865;28;45498;-69
2022/11/12 03:03:14;;;;;;;;;24.67;22.00;;;;;12.28;69.41;102075.72;5055401;28;45503;-68
2022/11/12 03:05:39;;;;;;;;;28.67;25.67;;;;;12.28;69.31;102080.13;5055279;28;45381;-68
2022/11/12 03:08:06;;;;;;;;;23.00;22.00;;;;;12.25;69.14;102081.06;5055256;28;45404;-68
2022/11/12 03:10:32;;;;;;;;;21.00;19.67;;;;;12.23;69.38;102072.28;5055211;28;45431;-69
2022/11/12 03:13:00;;;;;;;;;23.00;21.67;;;;;12.25;69.90;102069.59;5054594;28;45418;-69
2022/11/12 03:15:26;;;;;;;;;23.33;22.00;;;;;12.27;68.94;102070.44;5041572;28;45363;-68
2022/11/12 03:17:52;;;;;;;;;24.67;24.33;;;;;12.23;69.37;102069.66;5055088;28;46089;-68
2022/11/12 03:20:17;;;;;;;;;21.00;21.00;;;;;12.24;68.88;102068.75;5054688;28;45427;-68
2022/11/12 03:22:54;;;;;;;;;22.00;20.67;;;;;12.21;69.17;102055.59;5055132;28;45484;-69
2022/11/12 03:25:19;;;;;;;;;23.33;23.33;;;;;12.21;68.96;102060.03;5054973;28;45367;-69
2022/11/12 03:27:44;;;;;;;;;26.67;23.00;;;;;12.16;69.04;102055.69;5036657;28;55632;-69
2022/11/12 03:30:10;;;;;;;;;25.67;22.00;;;;;12.23;69.18;102052.97;5057307;28;45535;-68
2022/11/12 03:32:35;;;;;;;;;25.67;23.33;;;;;12.22;69.10;102056.47;5059411;28;45518;-69
2022/11/12 03:35:01;;;;;;;;;21.67;21.00;;;;;12.21;69.74;102055.59;5058550;28;45531;-69
2022/11/12 03:37:26;;;;;;;;;22.33;21.00;;;;;12.20;69.73;102058.25;5040270;28;46189;-69
2022/11/12 03:39:51;;;;;;;;;27.33;26.00;;;;;12.20;69.82;102053.88;5058380;28;45513;-69
2022/11/12 03:42:16;;;;;;;;;25.00;23.67;;;;;12.23;69.51;102058.22;5058253;28;45565;-69
2022/11/12 03:44:42;;;;;;;;;21.00;21.00;;;;;12.21;69.50;102055.59;5058406;28;48192;-69
2022/11/12 03:47:07;;;;;;;;;21.33;20.67;;;;;12.21;69.41;102062.66;5057777;28;54287;-69
2022/11/12 03:49:32;;;;;;;;;20.00;19.67;;;;;12.21;68.90;102060.03;5057947;28;53492;-68
2022/11/12 03:51:58;;;;;;;;;21.00;21.00;;;;;12.20;69.40;102061.78;5057882;28;55338;-68
2022/11/12 03:54:23;;;;;;;;;25.00;23.67;;;;;12.16;69.78;102052.19;5058409;28;45681;-70
2022/11/12 03:56:48;;;;;;;;;24.00;22.67;;;;;12.17;69.48;102064.50;5058159;28;45370;-68
2022/11/12 03:59:14;;;;;;;;;20.67;20.67;;;;;12.17;69.88;102072.41;5057656;28;45503;-67
2022/11/12 04:01:39;;;;;;;;;22.33;22.00;;;;;12.18;69.79;102071.50;5058201;28;45466;-69
2022/11/12 04:04:04;;;;;;;;;24.00;21.67;;;;;12.20;69.08;102077.63;5057358;28;55515;-68
2022/11/12 04:09:13;;;;;;;;;25.00;23.00;;;;;12.23;69.56;102076.69;5057792;28;45400;-68
2022/11/12 04:11:39;;;;;;;;;22.67;21.67;;;;;12.20;69.70;102077.63;5057760;28;45406;-68
2022/11/12 04:14:04;;;;;;;;;21.67;18.67;;;;;12.23;69.19;102082.84;5048263;28;45395;-68
2022/11/12 04:22:05;;;;;;;;;28.33;26.00;;;;;12.23;69.60;102089.88;5057531;28;45384;-68
2022/11/12 04:27:20;;;;;;;;;27.00;25.67;;;;;12.14;69.58;102086.53;5057678;28;45534;-68
2022/11/12 04:32:34;;;;;;;;;21.33;20.33;;;;;12.11;70.43;102072.50;5058317;28;45325;-68
2022/11/12 04:35:00;;;;;;;;;23.00;22.67;;;;;12.05;70.02;102080.53;5057656;28;45513;-67
2022/11/12 04:37:28;;;;;;;;;21.67;20.00;;;;;12.01;70.08;102073.56;5057264;28;45632;-68
2022/11/12 04:39:53;;;;;;;;;21.67;21.00;;;;;11.99;70.96;102078.88;5057291;28;45355;-67
2022/11/12 04:45:09;;;;;;;;;25.00;22.00;;;;;11.92;70.26;102072.81;5057684;28;45368;-68
2022/11/12 04:47:37;;;;;;;;;17.33;17.33;;;;;11.93;71.06;102077.22;5057140;28;46150;-68
2022/11/12 04:50:20;;;;;;;;;19.00;14.67;;;;;11.97;69.91;102071.88;5057319;28;45517;-70
2022/11/12 04:52:46;;;;;;;;;24.00;22.00;;;;;11.98;70.77;102071.84;5039201;28;45471;-69
2022/11/12 04:55:11;;;;;;;;;20.33;20.33;;;;;11.99;70.70;102070.97;5056967;28;53988;-68
2022/11/12 04:57:37;;;;;;;;;23.67;21.67;;;;;12.00;69.98;102072.69;5057141;28;45906;-67
2022/11/12 05:00:06;;;;;;;;;21.33;19.00;;;;;12.02;69.72;102075.31;5056903;28;45518;-67
2022/11/12 05:02:31;;;;;;;;;18.00;17.33;;;;;12.01;70.05;102069.16;5057096;28;45585;-67
2022/11/12 05:04:56;;;;;;;;;25.33;21.33;;;;;12.02;69.86;102070.03;5057172;28;45661;-69
2022/11/12 05:07:21;;;;;;;;;22.00;21.67;;;;;11.99;70.11;102064.81;5056808;28;46054;-67
2022/11/12 05:09:47;;;;;;;;;22.00;22.00;;;;;11.96;70.22;102071.03;5050862;28;45467;-68
2022/11/12 05:12:12;;;;;;;;;20.67;20.67;;;;;11.97;70.20;102066.59;5047430;28;45407;-67
2022/11/12 05:14:38;;;;;;;;;21.33;20.00;;;;;11.99;70.76;102078.00;5042489;28;46375;-67
2022/11/12 05:17:03;;;;;;;;;21.00;19.33;;;;;11.99;70.53;102086.78;5042833;28;46547;-67
2022/11/12 05:19:29;;;;;;;;;21.00;19.33;;;;;11.99;70.46;102072.72;5056994;28;46040;-68
2022/11/12 05:22:06;;;;;;;;;16.00;16.00;;;;;11.99;70.83;102073.59;5056903;28;45862;-68
2022/11/12 05:24:37;;;;;;;;;17.67;17.00;;;;;11.94;70.29;102062.25;5057215;28;45518;-67
2022/11/12 05:27:04;;;;;;;;;20.67;20.67;;;;;11.93;70.14;102074.56;5038433;28;46875;-68
2022/11/12 05:29:29;;;;;;;;;20.00;18.33;;;;;11.90;70.73;102082.53;5056086;28;45446;-69
2022/11/12 05:31:55;;;;;;;;;18.67;18.67;;;;;11.91;70.43;102075.50;5039052;28;45505;-67
2022/11/12 05:34:20;;;;;;;;;23.33;22.00;;;;;11.89;70.42;102070.25;5056877;28;45795;-68
2022/11/12 05:36:46;;;;;;;;;17.00;17.00;;;;;11.86;70.04;102064.16;5056405;28;45922;-68
2022/11/12 05:39:11;;;;;;;;;19.67;19.00;;;;;11.88;70.62;102072.91;5038774;28;45446;-68
2022/11/12 05:41:36;;;;;;;;;16.00;16.00;;;;;11.90;70.17;102065.81;5056673;28;45410;-68
2022/11/12 05:44:02;;;;;;;;;17.00;17.00;;;;;11.89;70.72;102054.41;5037865;28;45540;-68
2022/11/12 05:46:27;;;;;;;;;15.00;15.00;;;;;11.90;69.25;102060.56;5056356;28;45975;-68
2022/11/12 05:48:53;;;;;;;;;18.67;17.33;;;;;11.90;69.57;102060.56;5056369;28;45369;-68
2022/11/12 05:51:18;;;;;;;;;20.00;17.67;;;;;11.87;69.99;102056.19;5038476;28;45464;-68
2022/11/12 05:53:43;;;;;;;;;18.33;14.67;;;;;11.89;69.54;102069.38;5056409;28;45616;-68
2022/11/12 05:56:10;;;;;;;;;20.00;16.33;;;;;11.88;70.05;102067.66;5056058;28;46209;-68
2022/11/12 05:58:36;;;;;;;;;15.00;14.00;;;;;11.83;69.59;102070.31;5056383;28;45423;-68
2022/11/12 06:01:01;;;;;;;;;15.00;15.00;;;;;11.82;69.74;102070.34;5037938;28;45439;-68
2022/11/12 06:03:28;;;;;;;;;17.67;17.00;;;;;11.79;70.17;102067.75;5056201;28;45661;-68
2022/11/12 06:05:53;;;;;;;;;20.67;19.67;;;;;11.78;70.46;102076.56;5056056;28;45421;-68
2022/11/12 06:08:18;;;;;;;;;18.67;18.67;;;;;11.76;70.02;102083.63;5056050;28;45383;-67
2022/11/12 06:11:02;;;;;;;;;18.33;18.33;;;;;11.76;69.97;102076.56;5055996;28;46349;-69
2022/11/12 06:13:27;;;;;;;;;17.00;17.00;;;;;11.81;70.58;102080.00;5037919;28;45460;-68
2022/11/12 06:15:54;;;;;;;;;20.00;18.33;;;;;11.81;69.84;102077.38;5055866;28;45407;-68
2022/11/12 06:18:20;;;;;;;;;18.33;18.00;;;;;11.77;70.44;102070.44;5055901;28;45364;-68
2022/11/12 06:21:18;;;;;;;;;19.33;17.00;;;;;11.71;70.75;102076.69;5055909;28;45363;-68
2022/11/12 06:23:31;;;;;;;;;19.67;18.67;;;;;11.71;70.70;102075.78;5055475;28;45666;-68
2022/11/12 06:25:56;;;;;;;;;16.67;16.67;;;;;11.70;69.88;102077.56;5055823;28;46033;-68
2022/11/12 06:28:21;;;;;;;;;17.67;16.67;;;;;11.68;70.00;102081.97;5055830;28;45509;-68
2022/11/12 06:30:47;;;;;;;;;19.33;17.00;;;;;11.65;70.74;102074.13;5055707;28;45410;-68
2022/11/12 06:33:12;;;;;;;;;16.00;14.33;;;;;11.69;69.80;102074.97;5056486;28;45580;-68
2022/11/12 06:35:37;;;;;;;;;21.33;18.00;;;;;11.69;70.42;102082.88;5054943;28;61825;-68
2022/11/12 06:38:02;;;;;;;;;22.33;22.33;;;;;11.65;70.16;102084.66;5055671;28;45486;-68
2022/11/12 06:40:28;;;;;;;;;20.33;20.33;;;;;11.62;69.93;102081.22;5055458;28;45431;-68
2022/11/12 06:42:57;;;;;;;;;16.00;13.00;;;;;11.60;70.27;102078.59;5055830;28;45443;-69
2022/11/12 06:45:23;;;;;;;;;18.00;18.00;;;;;11.59;69.84;102079.50;5055407;28;45916;-68
2022/11/12 06:47:48;;;;;;;;;20.00;17.67;;;;;11.62;69.82;102089.97;5055452;28;45483;-68
2022/11/12 06:50:14;;;;;;;;;16.00;15.67;;;;;11.60;70.55;102085.63;5055367;28;45360;-68
2022/11/12 06:52:39;;;;;;;;;20.00;18.67;;;;;11.58;69.82;102082.13;5055348;28;45578;-68
2022/11/12 06:55:05;;;;;;;;;23.67;22.00;;;;;11.58;69.77;102087.41;5055296;28;54302;-68
2022/11/12 06:57:30;;;;;;;;;22.33;20.33;;;;;11.60;70.15;102090.91;5055256;28;45455;-68
2022/11/12 06:59:55;;;;;;;;;23.67;23.00;;;;;11.60;70.61;102097.03;5055280;28;45836;-68
2022/11/12 07:02:21;;;;;;;;;22.00;21.00;;;;;11.61;69.52;102098.78;5054916;28;50711;-68
2022/11/12 07:04:46;;;;;;;;;25.00;24.33;;;;;11.60;70.22;102090.91;5054609;28;45846;-68
2022/11/12 07:07:11;;;;;;;;;22.67;22.67;;;;;11.57;69.45;102091.81;5055323;28;45476;-68
2022/11/12 07:09:37;;;;;;;;;23.00;23.00;;;;;11.60;69.44;102098.81;5055165;28;45398;-68
2022/11/12 07:12:02;;;;;;;;;20.33;20.33;;;;;11.60;69.27;102094.41;5054865;28;48959;-68
2022/11/12 07:14:27;;;;;;;;;23.00;20.00;;;;;11.61;69.80;102095.28;5042093;28;46047;-68
2022/11/12 07:16:53;;;;;;;;;21.33;21.00;;;;;11.59;69.69;102095.31;5053390;28;46282;-68
2022/11/12 07:19:18;;;;;;;;;24.33;24.33;;;;;11.60;69.14;102088.25;5054949;28;45454;-68
2022/11/12 07:21:43;;;;;;;;;27.00;23.33;;;;;11.58;69.59;102093.56;5054477;28;45347;-68
2022/11/12 07:24:08;;;;;;;;;24.33;22.67;;;;;11.57;69.31;102090.94;5054010;28;58023;-69
2022/11/12 07:26:34;;;;;;;;;19.00;19.00;;;;;11.55;69.21;102100.63;5054571;28;45369;-69
2022/11/12 07:28:59;;;;;;;;;21.67;21.00;;;;;11.57;69.86;102099.72;5054890;28;45883;-68
2022/11/12 07:31:25;;;;;;;;;21.33;20.67;;;;;11.60;70.25;102110.22;5055320;28;45653;-69
2022/11/12 07:33:50;;;;;;;;;21.67;20.67;;;;;11.63;69.94;102111.94;5054544;28;46392;-69
2022/11/12 07:36:19;;;;;;;;;23.33;23.33;;;;;11.64;69.56;102116.31;5054818;28;45368;-69
2022/11/12 07:38:44;;;;;;;;;28.00;26.33;;;;;11.66;69.15;102117.16;5054884;28;45510;-69
2022/11/12 07:41:15;;;;;;;;;22.00;22.00;;;;;11.67;69.47;102121.53;5055056;28;45508;-69
2022/11/12 07:43:42;;;;;;;;;21.33;19.00;;;;;11.65;69.48;102121.56;5054411;28;45503;-69
2022/11/12 07:46:14;;;;;;;;;23.33;22.00;;;;;11.63;69.85;102118.09;5054499;28;45506;-69
2022/11/12 07:48:40;;;;;;;;;19.67;19.67;;;;;11.65;69.32;102118.91;5054643;28;45511;-68
2022/11/12 07:51:16;;;;;;;;;22.67;22.33;;;;;11.64;69.57;102118.97;5054833;28;45339;-68
2022/11/12 07:53:43;;;;;;;;;23.67;21.33;;;;;11.66;69.88;102119.78;5054700;28;46382;-68
2022/11/12 07:56:10;;;;;;;;;21.00;21.00;;;;;11.67;69.02;102121.53;5054181;28;45420;-68
2022/11/12 07:58:36;;;;;;;;;21.00;20.67;;;;;11.68;69.46;102132.03;5054444;28;45550;-69
2022/11/12 08:01:32;;;;;;;;;23.00;20.67;;;;;11.71;68.79;102142.56;5054354;28;45380;-68
2022/11/12 08:03:59;;;;;;;;;22.67;22.33;;;;;11.71;69.55;102137.28;5054154;28;45499;-68
2022/11/12 08:06:25;;;;;;;;;20.00;19.00;;;;;11.71;69.20;102136.41;5054301;28;45463;-68
2022/11/12 08:08:52;;;;;;;;;23.00;22.67;;;;;11.72;69.07;102136.38;5054482;28;45440;-68
2022/11/12 08:11:17;;;;;;;;;21.67;21.67;;;;;11.75;69.72;102140.75;5054112;28;45597;-69
2022/11/12 08:13:44;;;;;;;;;25.00;23.67;;;;;11.74;69.03;102146.91;5047629;28;46029;-68
2022/11/12 08:16:09;;;;;;;;;20.00;20.00;;;;;11.75;69.50;102146.00;5049271;28;45498;-69
2022/11/12 08:18:34;;;;;;;;;24.67;23.67;;;;;11.77;69.45;102148.59;5057600;28;45362;-68
2022/11/12 08:21:06;;;;;;;;;19.33;17.67;;;;;11.79;68.67;102149.47;5057907;28;45462;-69
2022/11/12 08:23:31;;;;;;;;;26.33;23.67;;;;;11.79;68.87;102139.78;5057386;28;46338;-69
2022/11/12 08:26:01;;;;;;;;;21.33;19.00;;;;;11.83;69.16;102151.16;5057429;28;47059;-68
2022/11/12 08:28:28;;;;;;;;;21.00;21.00;;;;;11.83;68.93;102148.53;5057875;28;45520;-68
2022/11/12 08:30:54;;;;;;;;;21.67;21.67;;;;;11.84;69.27;102151.13;5057796;28;45589;-67
2022/11/12 08:33:19;;;;;;;;;11.00;10.00;;;;;11.84;69.34;102153.75;5058122;28;45652;-68
2022/11/12 08:35:45;;;;;;;;;24.33;22.00;;;;;11.90;68.55;102166.91;5057310;28;45571;-67
2022/11/12 08:38:12;;;;;;;;;20.33;20.33;;;;;11.92;69.05;102165.09;5039489;28;45519;-67
2022/11/12 08:40:37;;;;;;;;;22.67;21.67;;;;;11.94;68.65;102160.69;5057288;28;45463;-67
2022/11/12 08:43:08;;;;;;;;;22.00;22.00;;;;;11.97;68.64;102164.16;5057469;28;46134;-70
2022/11/12 08:45:36;;;;;;;;;20.00;19.67;;;;;11.99;68.23;102168.53;5039191;28;45367;-67
2022/11/12 08:48:12;;;;;;;;;24.67;22.67;;;;;11.98;68.41;102161.47;5057425;28;45429;-68
2022/11/12 08:50:38;;;;;;;;;25.33;22.33;;;;;11.92;69.26;102157.19;5057187;28;45538;-68
2022/11/12 08:53:06;;;;;;;;;25.33;25.00;;;;;11.99;69.03;102157.97;5057053;28;45446;-69
2022/11/12 08:55:32;;;;;;;;;23.33;21.33;;;;;11.99;68.51;102157.09;5056809;28;45450;-68
2022/11/12 08:58:00;;;;;;;;;21.67;20.33;;;;;11.98;68.90;102153.56;5057385;28;45415;-68
2022/11/12 09:00:27;;;;;;;;;22.00;22.00;;;;;12.02;68.70;102150.00;5057098;28;45706;-68
2022/11/12 09:02:53;;;;;;;;;20.33;20.00;;;;;12.06;68.82;102145.53;5056726;28;45367;-68
2022/11/12 09:05:18;;;;;;;;;18.67;18.67;;;;;12.04;68.87;102148.22;5057006;28;45387;-68
2022/11/12 09:07:44;;;;;;;;;18.67;18.00;;;;;12.07;68.54;102144.66;5038930;28;45473;-67
2022/11/12 09:10:09;;;;;;;;;19.00;18.33;;;;;12.09;68.50;102151.66;5057263;28;45639;-68
2022/11/12 09:12:34;;;;;;;;;14.33;12.00;;;;;12.12;68.50;102151.59;5056810;28;46059;-68
2022/11/12 09:15:00;;;;;;;;;21.00;20.67;;;;;12.14;68.91;102151.56;5042867;28;45473;-69
2022/11/12 09:17:27;;;;;;;;;19.33;19.33;;;;;12.13;68.65;102150.69;5057139;28;45379;-68
2022/11/12 09:19:53;;;;;;;;;19.67;18.67;;;;;12.13;69.03;102148.06;5056912;28;45658;-68
2022/11/12 09:22:18;;;;;;;;;23.67;21.00;;;;;12.17;68.70;102151.53;5056315;28;45562;-68
2022/11/12 09:24:43;;;;;;;;;18.67;18.33;;;;;12.21;68.88;102152.34;5056275;28;45535;-69
2022/11/12 09:27:09;;;;;;;;;24.67;23.33;;;;;12.24;68.80;102147.88;5056274;28;45534;-68
2022/11/12 09:29:34;;;;;;;;;23.33;22.00;;;;;12.26;68.17;102147.84;5056679;28;45730;-68
2022/11/12 09:31:59;;;;;;;;;26.33;24.00;;;;;12.27;68.55;102146.94;5056799;28;46033;-68
2022/11/12 09:34:25;;;;;;;;;20.67;19.67;;;;;12.27;68.76;102144.31;5056254;28;45427;-68
2022/11/12 09:36:50;;;;;;;;;24.67;22.33;;;;;12.29;68.68;102147.81;5056443;28;45581;-67
2022/11/12 09:39:15;;;;;;;;;25.67;23.33;;;;;12.29;68.13;102142.53;5056590;28;45461;-69
2022/11/12 09:41:41;;;;;;;;;21.67;21.67;;;;;12.31;68.70;102144.25;5056395;28;46367;-68
2022/11/12 09:44:15;;;;;;;;;25.00;22.33;;;;;12.34;68.59;102149.47;5056241;28;45424;-69
2022/11/12 09:46:47;;;;;;;;;28.00;25.67;;;;;12.36;68.59;102152.09;5056460;28;45393;-68
2022/11/12 09:49:22;;;;;;;;;24.67;23.67;;;;;12.35;68.31;102151.19;5056419;28;45492;-68
2022/11/12 09:51:56;;;;;;;;;24.00;24.00;;;;;12.33;68.41;102160.91;5038382;28;45445;-69
2022/11/12 09:54:24;;;;;;;;;29.00;26.67;;;;;12.31;68.58;102162.72;5056172;28;45530;-67
2022/11/12 09:56:51;;;;;;;;;25.67;23.67;;;;;12.32;68.38;102158.28;5038345;28;45423;-68
2022/11/12 09:59:17;;;;;;;;;27.00;26.00;;;;;12.37;68.50;102162.59;5055822;28;45564;-68
2022/11/12 10:02:02;;;;;;;;;24.33;23.33;;;;;12.34;68.69;102152.09;5056308;28;45390;-68
2022/11/12 10:04:44;;;;;;;;;23.00;23.00;;;;;12.44;68.52;102162.47;5056108;28;45428;-68
2022/11/12 10:07:24;;;;;;;;;24.00;24.00;;;;;12.49;68.55;102161.53;5056242;28;45485;-68
2022/11/12 10:10:02;;;;;;;;;24.00;24.00;;;;;12.53;68.45;102157.91;5056317;28;45524;-68
2022/11/12 10:12:59;;;;;;;;;25.67;23.33;;;;;12.58;68.21;102161.34;5055739;28;45577;-68
2022/11/12 10:18:53;;;;;;;;;26.33;25.00;;;;;12.58;68.28;102163.97;5055949;28;45435;-68
2022/11/12 10:21:45;;;;;;;;;24.33;24.00;;;;;12.63;68.75;102170.91;5056144;28;45433;-69
2022/11/12 10:24:10;;;;;;;;;25.00;24.00;;;;;12.64;68.39;102159.47;5055654;28;45478;-67
2022/11/12 10:26:37;;;;;;;;;25.33;22.67;;;;;12.69;68.09;102160.28;5055665;28;45482;-68
2022/11/12 10:29:15;;;;;;;;;26.00;26.00;;;;;12.71;68.11;102155.84;5055970;28;45415;-68
2022/11/12 10:31:41;;;;;;;;;25.67;23.67;;;;;12.71;68.34;102158.47;5056172;28;45366;-68
2022/11/12 10:34:12;;;;;;;;;29.67;28.67;;;;;12.75;68.56;102154.88;5055453;28;45419;-68
2022/11/12 10:36:42;;;;;;;;;23.33;22.67;;;;;12.74;68.50;102146.06;5055717;28;45395;-68
2022/11/12 10:39:07;;;;;;;;;30.00;28.00;;;;;12.78;68.66;102149.53;5054512;28;45569;-68
2022/11/12 10:41:33;;;;;;;;;28.33;28.00;;;;;12.80;68.22;102145.94;5055673;28;45437;-69
2022/11/12 10:44:01;;;;;;;;;29.67;27.33;;;;;12.83;68.02;102139.75;5055178;28;45539;-69
2022/11/12 10:46:37;;;;;;;;;24.67;24.67;;;;;12.85;68.05;102142.38;5055482;28;45356;-68
2022/11/12 10:49:21;;;;;;;;;28.33;25.33;;;;;12.86;68.00;102139.66;5055590;28;45440;-69
2022/11/12 10:51:55;;;;;;;;;29.00;29.00;;;;;12.88;68.16;102139.66;5037442;28;45542;-70
2022/11/12 10:54:34;;;;;;;;;30.00;29.33;;;;;12.93;68.32;102135.16;5055155;28;45476;-68
2022/11/12 10:57:19;;;;;;;;;27.33;26.33;;;;;12.96;68.55;102129.81;5055278;28;45435;-68
2022/11/12 10:59:44;;;;;;;;;30.33;24.67;;;;;12.98;68.05;102122.72;5036833;28;45487;-68
2022/11/12 11:02:16;;;;;;;;;27.33;27.00;;;;;13.00;68.35;102120.91;5055384;28;45565;-67
2022/11/12 11:04:42;;;;;;;;;27.33;25.00;;;;;12.99;68.11;102125.31;5055203;28;45524;-68
2022/11/12 11:07:23;;;;;;;;;29.67;27.67;;;;;13.02;68.16;102119.97;5055176;28;45442;-69
2022/11/12 11:09:56;;;;;;;;;30.00;27.33;;;;;13.02;67.97;102103.25;5055322;28;45482;-69
2022/11/12 11:12:28;;;;;;;;;27.00;25.67;;;;;13.04;68.30;102098.81;5055039;28;45624;-68
2022/11/12 11:15:18;;;;;;;;;31.00;30.33;;;;;13.11;68.11;102102.19;5040830;28;45363;-68
2022/11/12 11:17:44;;;;;;;;;26.33;25.67;;;;;13.12;68.17;102096.88;5055250;28;45538;-69
2022/11/12 11:20:38;;;;;;;;;31.00;29.67;;;;;13.14;67.85;102099.50;5036915;28;45496;-69
2022/11/12 11:23:20;;;;;;;;;30.00;29.33;;;;;13.11;68.21;102091.63;5055051;28;45516;-69
2022/11/12 11:25:52;;;;;;;;;27.00;27.00;;;;;13.14;67.89;102095.06;5054961;28;45396;-69
2022/11/12 11:29:06;;;;;;;;;29.67;29.67;;;;;13.20;67.74;102089.66;5054976;28;45399;-68
2022/11/12 11:31:56;;;;;;;;;34.00;31.33;;;;;13.20;67.84;102080.88;4934581;28;45405;-70
2022/11/12 11:34:21;;;;;;;;;31.33;31.33;;;;;13.24;67.51;102071.94;4934673;28;45493;-70